Maya — WDJ5755 — position and weather

sailwx.info

Track history (hours):
 
Tides and Currents Weather Stations Pressure Air Temp Water Temp Dewpoint Dewpoint Depression Visibility Wind Speed Wind Dir Waves Ship Positions

Maya

Owner: COCOBAY PROPERTIES LTD, FORT LAUDERDALE, FL. More information available from US FCC via Universal Licensing System and Coast Guard Vessel Documentation Center.

Last reported at 2018-May-24 20:38 UTC. Time now 2018-May-25 06:44 UTC.
Position N 32°03' W 080°49'.

Length 10 m.

Type: Pleasure craft. MMSI: 367790970.

Date/timePositionNaut miles runAvg speedWind from/ knotsBaromVisibWave heightAir tempDewpointWater temp
2018-May-24 20:38N 32°03' W 080°49'319.7
2018-May-24 20:29N 32°05' W 080°50'2 3.8
2018-May-24 19:59N 32°04' W 080°50'5 8.5
2018-May-24 19:25N 32°08' W 080°49'4 5.1
2018-May-24 18:40N 32°05' W 080°50'212.9
2018-May-24 18:30N 32°03' W 080°49'6 3.8
2018-May-24 17:00N 32°08' W 080°49'611.1
2018-May-24 16:29N 32°02' W 080°49'0 0.0
2018-May-24 14:05N 32°02' W 080°49'631.8
2018-May-24 13:54N 32°08' W 080°49'410.7
2018-May-24 13:31N 32°04' W 080°50'13 0.9
2018-May-23 23:16N 32°05' W 081°05'0 0.0
2018-May-23 22:59N 32°05' W 081°05'0 0.0
2018-May-23 22:30N 32°05' W 081°05'0 0.0
2018-May-23 22:00N 32°05' W 081°05'0 0.0
2018-May-23 21:24N 32°05' W 081°05'0 0.0
2018-May-23 21:00N 32°05' W 081°05'0 0.0
2018-May-23 19:18N 32°05' W 081°05'0 0.0
2018-May-23 19:00N 32°05' W 081°05'0 0.0
2018-May-23 18:30N 32°05' W 081°05'0 0.0
2018-May-23 18:00N 32°05' W 081°05'0 0.0
2018-May-23 17:18N 32°05' W 081°05'0 0.0
2018-May-23 17:00N 32°05' W 081°05'0 0.0
2018-May-23 16:18N 32°05' W 081°05'0 0.0
2018-May-23 16:00N 32°05' W 081°05'0 0.1
2018-May-23 15:27N 32°05' W 081°05'0 0.0
2018-May-22 20:27N 32°05' W 081°05'0 0.0
2018-May-22 19:57N 32°05' W 081°05'0 0.0
2018-May-22 19:27N 32°05' W 081°05'0 0.0
2018-May-22 18:57N 32°05' W 081°05'0 0.0
2018-May-22 18:27N 32°05' W 081°05'0 0.0
2018-May-22 02:11N 32°05' W 081°05'0 0.1
2018-May-22 02:00N 32°05' W 081°05'1 2.6
2018-May-22 01:29N 32°05' W 081°04'510.3
2018-May-22 01:00N 32°04' W 080°58'  
Track history (hours):
 
Tides and Currents Weather Stations Pressure Air Temp Water Temp Dewpoint Dewpoint Depression Visibility Wind Speed Wind Dir Waves Ship Positions

Maya

Owner: COCOBAY PROPERTIES LTD, FORT LAUDERDALE, FL. More information available from US FCC via Universal Licensing System and Coast Guard Vessel Documentation Center.

Last reported at 2018-May-24 20:38 UTC. Time now 2018-May-25 06:44 UTC.
Position N 32°03' W 080°49'.

Length 10 m.

Type: Pleasure craft. MMSI: 367790970.

Date/timePositionNaut miles runAvg speedWind from/ knotsBaromVisibWave heightAir tempDewpointWater temp
2018-May-24 20:38N 32°03' W 080°49'319.7
2018-May-24 20:29N 32°05' W 080°50'2 3.8
2018-May-24 19:59N 32°04' W 080°50'5 8.5
2018-May-24 19:25N 32°08' W 080°49'4 5.1
2018-May-24 18:40N 32°05' W 080°50'212.9
2018-May-24 18:30N 32°03' W 080°49'6 3.8
2018-May-24 17:00N 32°08' W 080°49'611.1
2018-May-24 16:29N 32°02' W 080°49'0 0.0
2018-May-24 14:05N 32°02' W 080°49'631.8
2018-May-24 13:54N 32°08' W 080°49'410.7
2018-May-24 13:31N 32°04' W 080°50'13 0.9
2018-May-23 23:16N 32°05' W 081°05'0 0.0
2018-May-23 22:59N 32°05' W 081°05'0 0.0
2018-May-23 22:30N 32°05' W 081°05'0 0.0
2018-May-23 22:00N 32°05' W 081°05'0 0.0
2018-May-23 21:24N 32°05' W 081°05'0 0.0
2018-May-23 21:00N 32°05' W 081°05'0 0.0
2018-May-23 19:18N 32°05' W 081°05'0 0.0
2018-May-23 19:00N 32°05' W 081°05'0 0.0
2018-May-23 18:30N 32°05' W 081°05'0 0.0
2018-May-23 18:00N 32°05' W 081°05'0 0.0
2018-May-23 17:18N 32°05' W 081°05'0 0.0
2018-May-23 17:00N 32°05' W 081°05'0 0.0
2018-May-23 16:18N 32°05' W 081°05'0 0.0
2018-May-23 16:00N 32°05' W 081°05'0 0.1
2018-May-23 15:27N 32°05' W 081°05'0 0.0
2018-May-22 20:27N 32°05' W 081°05'0 0.0
2018-May-22 19:57N 32°05' W 081°05'0 0.0
2018-May-22 19:27N 32°05' W 081°05'0 0.0
2018-May-22 18:57N 32°05' W 081°05'0 0.0
2018-May-22 18:27N 32°05' W 081°05'0 0.0
2018-May-22 02:11N 32°05' W 081°05'0 0.1
2018-May-22 02:00N 32°05' W 081°05'1 2.6
2018-May-22 01:29N 32°05' W 081°04'510.3
2018-May-22 01:00N 32°04' W 080°58'  

Dump ship's entire track history